sensor_id;sensor_type;location;lat;lon;timestamp;pressure;altitude;pressure_sealevel;temperature;humidity
32452;BME280;45528;52.102;5.242;2022-12-29T00:01:35;99503.0;;;16.63;61.77
32452;BME280;45528;52.102;5.242;2022-12-29T00:04:49;99512.0;;;16.65;62.27
32452;BME280;45528;52.102;5.242;2022-12-29T00:06:26;99509.0;;;16.72;62.06
32452;BME280;45528;52.102;5.242;2022-12-29T00:08:03;99502.0;;;16.61;62.03
32452;BME280;45528;52.102;5.242;2022-12-29T00:09:39;99502.0;;;16.81;61.7
32452;BME280;45528;52.102;5.242;2022-12-29T00:12:55;99486.0;;;16.89;61.26
32452;BME280;45528;52.102;5.242;2022-12-29T00:14:32;99492.0;;;17.0;60.71
32452;BME280;45528;52.102;5.242;2022-12-29T00:16:08;99485.0;;;17.18;60.45
32452;BME280;45528;52.102;5.242;2022-12-29T00:19:20;99492.0;;;16.89;60.99
32452;BME280;45528;52.102;5.242;2022-12-29T00:20:56;99482.0;;;17.09;60.64
32452;BME280;45528;52.102;5.242;2022-12-29T00:22:32;99477.0;;;16.8;61.22
32452;BME280;45528;52.102;5.242;2022-12-29T00:25:50;99478.0;;;16.91;61.09
32452;BME280;45528;52.102;5.242;2022-12-29T00:27:27;99478.0;;;16.77;61.38
32452;BME280;45528;52.102;5.242;2022-12-29T00:29:03;99481.0;;;17.0;60.83
32452;BME280;45528;52.102;5.242;2022-12-29T00:30:39;99481.0;;;17.13;60.47
32452;BME280;45528;52.102;5.242;2022-12-29T00:33:53;99480.0;;;17.43;59.74
32452;BME280;45528;52.102;5.242;2022-12-29T00:35:31;99482.0;;;17.41;59.68
32452;BME280;45528;52.102;5.242;2022-12-29T00:37:12;99474.0;;;17.31;59.93
32452;BME280;45528;52.102;5.242;2022-12-29T00:40:30;99463.0;;;17.11;60.41
32452;BME280;45528;52.102;5.242;2022-12-29T00:42:08;99465.0;;;17.14;60.25
32452;BME280;45528;52.102;5.242;2022-12-29T00:43:45;99459.0;;;16.89;60.83
32452;BME280;45528;52.102;5.242;2022-12-29T00:45:21;99456.0;;;17.21;60.12
32452;BME280;45528;52.102;5.242;2022-12-29T00:48:33;99451.0;;;16.96;60.83
32452;BME280;45528;52.102;5.242;2022-12-29T00:50:10;99442.0;;;16.93;60.73
32452;BME280;45528;52.102;5.242;2022-12-29T00:51:46;99443.0;;;17.23;59.89
32452;BME280;45528;52.102;5.242;2022-12-29T00:54:59;99436.0;;;16.93;60.51
32452;BME280;45528;52.102;5.242;2022-12-29T00:56:35;99436.0;;;17.18;60.0
32452;BME280;45528;52.102;5.242;2022-12-29T00:58:13;99425.0;;;16.95;60.51
32452;BME280;45528;52.102;5.242;2022-12-29T00:59:49;99434.0;;;17.09;60.3
32452;BME280;45528;52.102;5.242;2022-12-29T01:03:02;99431.0;;;17.05;60.51
32452;BME280;45528;52.102;5.242;2022-12-29T01:04:38;99431.0;;;16.91;60.8
32452;BME280;45528;52.102;5.242;2022-12-29T01:06:15;99421.0;;;16.88;60.97
32452;BME280;45528;52.102;5.242;2022-12-29T01:09:27;99424.0;;;16.96;60.38
32452;BME280;45528;52.102;5.242;2022-12-29T01:11:04;99425.0;;;17.13;60.37
32452;BME280;45528;52.102;5.242;2022-12-29T01:12:42;99426.0;;;17.12;60.47
32452;BME280;45528;52.102;5.242;2022-12-29T01:15:56;99420.0;;;17.25;60.22
32452;BME280;45528;52.102;5.242;2022-12-29T01:17:33;99427.0;;;16.97;61.35
32452;BME280;45528;52.102;5.242;2022-12-29T01:19:10;99416.0;;;16.86;61.96
32452;BME280;45528;52.102;5.242;2022-12-29T01:20:47;99428.0;;;17.03;61.7
32452;BME280;45528;52.102;5.242;2022-12-29T01:24:00;99408.0;;;16.71;63.03
32452;BME280;45528;52.102;5.242;2022-12-29T01:25:37;99414.0;;;16.65;63.55
32452;BME280;45528;52.102;5.242;2022-12-29T01:27:14;99413.0;;;16.43;64.27
32452;BME280;45528;52.102;5.242;2022-12-29T01:30:26;99412.0;;;16.55;64.28
32452;BME280;45528;52.102;5.242;2022-12-29T01:32:03;99416.0;;;16.25;65.05
32452;BME280;45528;52.102;5.242;2022-12-29T01:33:40;99420.0;;;16.48;64.61
32452;BME280;45528;52.102;5.242;2022-12-29T01:36:55;99420.0;;;16.68;64.06
32452;BME280;45528;52.102;5.242;2022-12-29T01:38:31;99419.0;;;16.72;64.03
32452;BME280;45528;52.102;5.242;2022-12-29T01:40:09;99426.0;;;16.79;63.89
32452;BME280;45528;52.102;5.242;2022-12-29T01:41:46;99421.0;;;16.28;65.41
32452;BME280;45528;52.102;5.242;2022-12-29T01:45:17;99431.0;;;16.25;65.69
32452;BME280;45528;52.102;5.242;2022-12-29T01:46:53;99431.0;;;15.99;66.61
32452;BME280;45528;52.102;5.242;2022-12-29T01:48:31;99427.0;;;16.18;65.94
32452;BME280;45528;52.102;5.242;2022-12-29T01:50:10;99425.0;;;16.22;66.14
32452;BME280;45528;52.102;5.242;2022-12-29T01:53:35;99420.0;;;16.38;65.6
32452;BME280;45528;52.102;5.242;2022-12-29T01:55:12;99414.0;;;16.3;65.58
32452;BME280;45528;52.102;5.242;2022-12-29T01:56:50;99410.0;;;16.22;65.62
32452;BME280;45528;52.102;5.242;2022-12-29T01:58:30;99412.0;;;16.06;66.16
32452;BME280;45528;52.102;5.242;2022-12-29T02:01:49;99410.0;;;16.18;65.58
32452;BME280;45528;52.102;5.242;2022-12-29T02:03:27;99415.0;;;16.27;65.53
32452;BME280;45528;52.102;5.242;2022-12-29T02:05:10;99430.0;;;16.3;65.31
32452;BME280;45528;52.102;5.242;2022-12-29T02:06:53;99426.0;;;16.47;64.94
32452;BME280;45528;52.102;5.242;2022-12-29T02:10:08;99426.0;;;16.66;64.34
32452;BME280;45528;52.102;5.242;2022-12-29T02:11:44;99430.0;;;16.37;65.08
32452;BME280;45528;52.102;5.242;2022-12-29T02:15:02;99435.0;;;16.75;63.91
32452;BME280;45528;52.102;5.242;2022-12-29T02:16:52;99441.0;;;16.8;63.81
32452;BME280;45528;52.102;5.242;2022-12-29T02:18:44;99436.0;;;16.18;65.09
32452;BME280;45528;52.102;5.242;2022-12-29T02:20:55;99449.0;;;16.61;64.11
32452;BME280;45528;52.102;5.242;2022-12-29T02:24:14;99426.0;;;15.98;65.42
32452;BME280;45528;52.102;5.242;2022-12-29T02:27:29;99428.0;;;16.27;64.67
32452;BME280;45528;52.102;5.242;2022-12-29T02:30:58;99436.0;;;16.55;63.41
32452;BME280;45528;52.102;5.242;2022-12-29T02:32:46;99430.0;;;16.22;63.86
32452;BME280;45528;52.102;5.242;2022-12-29T02:34:35;99436.0;;;16.52;63.28
32452;BME280;45528;52.102;5.242;2022-12-29T02:36:24;99426.0;;;16.47;63.24
32452;BME280;45528;52.102;5.242;2022-12-29T02:40:00;99433.0;;;16.8;62.35
32452;BME280;45528;52.102;5.242;2022-12-29T02:41:46;99406.0;;;16.4;63.49
32452;BME280;45528;52.102;5.242;2022-12-29T02:43:43;99418.0;;;16.59;62.33
32452;BME280;45528;52.102;5.242;2022-12-29T02:45:32;99414.0;;;16.5;62.27
32452;BME280;45528;52.102;5.242;2022-12-29T02:47:20;99414.0;;;16.56;61.87
32452;BME280;45528;52.102;5.242;2022-12-29T02:49:06;99409.0;;;16.45;61.77
32452;BME280;45528;52.102;5.242;2022-12-29T02:50:51;99418.0;;;16.53;61.76
32452;BME280;45528;52.102;5.242;2022-12-29T02:54:16;99410.0;;;16.31;62.02
32452;BME280;45528;52.102;5.242;2022-12-29T02:55:53;99418.0;;;16.23;61.77
32452;BME280;45528;52.102;5.242;2022-12-29T02:57:32;99424.0;;;16.57;60.91
32452;BME280;45528;52.102;5.242;2022-12-29T02:59:09;99411.0;;;16.06;61.74
32452;BME280;45528;52.102;5.242;2022-12-29T03:03:05;99418.0;;;16.27;61.72
32452;BME280;45528;52.102;5.242;2022-12-29T03:05:02;99427.0;;;16.5;60.91
32452;BME280;45528;52.102;5.242;2022-12-29T03:06:57;99422.0;;;16.66;60.67
32452;BME280;45528;52.102;5.242;2022-12-29T03:08:44;99437.0;;;16.7;60.75
32452;BME280;45528;52.102;5.242;2022-12-29T03:10:32;99415.0;;;16.37;61.0
32452;BME280;45528;52.102;5.242;2022-12-29T03:12:24;99425.0;;;16.59;60.7
32452;BME280;45528;52.102;5.242;2022-12-29T03:14:09;99413.0;;;16.4;61.4
32452;BME280;45528;52.102;5.242;2022-12-29T03:15:57;99421.0;;;16.32;61.45
32452;BME280;45528;52.102;5.242;2022-12-29T03:19:28;99418.0;;;16.12;62.13
32452;BME280;45528;52.102;5.242;2022-12-29T03:21:11;99422.0;;;16.65;60.62
32452;BME280;45528;52.102;5.242;2022-12-29T03:22:51;99424.0;;;16.65;60.65
32452;BME280;45528;52.102;5.242;2022-12-29T03:24:37;99405.0;;;15.93;61.98
32452;BME280;45528;52.102;5.242;2022-12-29T03:26:26;99417.0;;;16.21;61.55
32452;BME280;45528;52.102;5.242;2022-12-29T03:29:47;99388.0;;;15.76;62.51
32452;BME280;45528;52.102;5.242;2022-12-29T03:31:26;99403.0;;;16.36;61.08
32452;BME280;45528;52.102;5.242;2022-12-29T03:33:05;99395.0;;;16.23;61.08
32452;BME280;45528;52.102;5.242;2022-12-29T03:34:46;99395.0;;;16.12;61.31
32452;BME280;45528;52.102;5.242;2022-12-29T03:38:16;99386.0;;;16.23;61.41
32452;BME280;45528;52.102;5.242;2022-12-29T03:39:54;99390.0;;;16.2;61.33
32452;BME280;45528;52.102;5.242;2022-12-29T03:41:33;99401.0;;;16.06;61.72
32452;BME280;45528;52.102;5.242;2022-12-29T03:43:10;99400.0;;;16.11;61.29
32452;BME280;45528;52.102;5.242;2022-12-29T03:46:30;99393.0;;;15.91;61.85
32452;BME280;45528;52.102;5.242;2022-12-29T03:48:06;99390.0;;;15.94;61.7
32452;BME280;45528;52.102;5.242;2022-12-29T03:49:42;99393.0;;;16.16;61.02
32452;BME280;45528;52.102;5.242;2022-12-29T03:52:59;99394.0;;;16.03;60.96
32452;BME280;45528;52.102;5.242;2022-12-29T03:54:35;99400.0;;;16.4;60.38
32452;BME280;45528;52.102;5.242;2022-12-29T03:56:11;99390.0;;;16.13;60.98
32452;BME280;45528;52.102;5.242;2022-12-29T04:01:00;99383.0;;;16.36;60.17
32452;BME280;45528;52.102;5.242;2022-12-29T04:02:36;99391.0;;;16.06;60.95
32452;BME280;45528;52.102;5.242;2022-12-29T04:04:12;99390.0;;;16.18;60.54
32452;BME280;45528;52.102;5.242;2022-12-29T04:07:25;99389.0;;;16.11;60.63
32452;BME280;45528;52.102;5.242;2022-12-29T04:09:02;99388.0;;;15.97;61.38
32452;BME280;45528;52.102;5.242;2022-12-29T04:10:39;99388.0;;;15.93;61.12
32452;BME280;45528;52.102;5.242;2022-12-29T04:13:52;99389.0;;;16.13;60.68
32452;BME280;45528;52.102;5.242;2022-12-29T04:15:29;99392.0;;;16.29;60.4
32452;BME280;45528;52.102;5.242;2022-12-29T04:17:05;99408.0;;;16.03;61.44
32452;BME280;45528;52.102;5.242;2022-12-29T04:18:42;99407.0;;;16.02;61.39
32452;BME280;45528;52.102;5.242;2022-12-29T04:21:55;99409.0;;;15.97;61.21
32452;BME280;45528;52.102;5.242;2022-12-29T04:25:11;99422.0;;;15.96;61.1
32452;BME280;45528;52.102;5.242;2022-12-29T04:28:23;99409.0;;;15.8;60.52
32452;BME280;45528;52.102;5.242;2022-12-29T04:30:00;99409.0;;;15.88;60.21
32452;BME280;45528;52.102;5.242;2022-12-29T04:31:36;99411.0;;;16.02;59.96
32452;BME280;45528;52.102;5.242;2022-12-29T04:33:13;99412.0;;;16.16;59.4
32452;BME280;45528;52.102;5.242;2022-12-29T04:36:26;99417.0;;;15.65;59.7
32452;BME280;45528;52.102;5.242;2022-12-29T04:38:03;99445.0;;;16.02;58.97
32452;BME280;45528;52.102;5.242;2022-12-29T04:39:39;99413.0;;;15.73;59.61
32452;BME280;45528;52.102;5.242;2022-12-29T04:42:52;99415.0;;;15.8;58.78
32452;BME280;45528;52.102;5.242;2022-12-29T04:44:28;99430.0;;;16.04;57.86
32452;BME280;45528;52.102;5.242;2022-12-29T04:46:04;99425.0;;;16.36;57.35
32452;BME280;45528;52.102;5.242;2022-12-29T04:49:17;99432.0;;;16.41;57.2
32452;BME280;45528;52.102;5.242;2022-12-29T04:50:53;99434.0;;;16.46;56.96
32452;BME280;45528;52.102;5.242;2022-12-29T04:52:30;99435.0;;;16.27;57.42
32452;BME280;45528;52.102;5.242;2022-12-29T04:55:47;99442.0;;;16.18;57.48
32452;BME280;45528;52.102;5.242;2022-12-29T04:57:24;99436.0;;;15.93;58.21
32452;BME280;45528;52.102;5.242;2022-12-29T04:59:02;99449.0;;;16.23;57.61
32452;BME280;45528;52.102;5.242;2022-12-29T05:00:38;99447.0;;;16.29;57.37
32452;BME280;45528;52.102;5.242;2022-12-29T05:03:51;99446.0;;;15.96;58.05
32452;BME280;45528;52.102;5.242;2022-12-29T05:05:27;99438.0;;;16.05;57.97
32452;BME280;45528;52.102;5.242;2022-12-29T05:07:04;99443.0;;;15.93;58.62
32452;BME280;45528;52.102;5.242;2022-12-29T05:10:18;99430.0;;;15.8;58.48
32452;BME280;45528;52.102;5.242;2022-12-29T05:11:54;99436.0;;;15.82;58.85
32452;BME280;45528;52.102;5.242;2022-12-29T05:13:30;99460.0;;;15.88;58.75
32452;BME280;45528;52.102;5.242;2022-12-29T05:15:08;99446.0;;;15.53;59.34
32452;BME280;45528;52.102;5.242;2022-12-29T05:18:22;99452.0;;;15.62;58.94
32452;BME280;45528;52.102;5.242;2022-12-29T05:19:58;99449.0;;;15.43;58.85
32452;BME280;45528;52.102;5.242;2022-12-29T05:21:35;99462.0;;;15.78;58.49
32452;BME280;45528;52.102;5.242;2022-12-29T05:24:49;99461.0;;;15.8;58.2
32452;BME280;45528;52.102;5.242;2022-12-29T05:26:25;99466.0;;;15.68;58.25
32452;BME280;45528;52.102;5.242;2022-12-29T05:28:02;99467.0;;;15.95;58.02
32452;BME280;45528;52.102;5.242;2022-12-29T05:31:15;99460.0;;;15.91;57.88
32452;BME280;45528;52.102;5.242;2022-12-29T05:32:51;99471.0;;;16.07;57.12
32452;BME280;45528;52.102;5.242;2022-12-29T05:34:28;99466.0;;;15.85;57.95
32452;BME280;45528;52.102;5.242;2022-12-29T05:36:06;99459.0;;;16.09;57.51
32452;BME280;45528;52.102;5.242;2022-12-29T05:39:21;99452.0;;;15.71;58.21
32452;BME280;45528;52.102;5.242;2022-12-29T05:40:57;99447.0;;;15.74;58.89
32452;BME280;45528;52.102;5.242;2022-12-29T05:42:33;99452.0;;;15.73;58.7
32452;BME280;45528;52.102;5.242;2022-12-29T05:45:48;99455.0;;;15.87;57.95
32452;BME280;45528;52.102;5.242;2022-12-29T05:49:01;99461.0;;;15.78;58.09
32452;BME280;45528;52.102;5.242;2022-12-29T05:50:37;99465.0;;;15.79;57.61
32452;BME280;45528;52.102;5.242;2022-12-29T05:53:49;99473.0;;;15.69;58.25
32452;BME280;45528;52.102;5.242;2022-12-29T05:55:26;99480.0;;;15.82;57.9
32452;BME280;45528;52.102;5.242;2022-12-29T05:57:03;99498.0;;;15.81;58.1
32452;BME280;45528;52.102;5.242;2022-12-29T06:00:16;99484.0;;;15.91;57.79
32452;BME280;45528;52.102;5.242;2022-12-29T06:01:52;99505.0;;;15.74;58.15
32452;BME280;45528;52.102;5.242;2022-12-29T06:03:28;99493.0;;;15.5;58.66
32452;BME280;45528;52.102;5.242;2022-12-29T06:06:42;99496.0;;;15.63;58.97
32452;BME280;45528;52.102;5.242;2022-12-29T06:08:19;99500.0;;;15.75;58.81
32452;BME280;45528;52.102;5.242;2022-12-29T06:09:55;99496.0;;;15.45;59.14
32452;BME280;45528;52.102;5.242;2022-12-29T06:11:32;99497.0;;;15.2;59.53
32452;BME280;45528;52.102;5.242;2022-12-29T06:14:45;99491.0;;;15.13;60.05
32452;BME280;45528;52.102;5.242;2022-12-29T06:16:22;99503.0;;;15.29;59.51
32452;BME280;45528;52.102;5.242;2022-12-29T06:17:58;99499.0;;;15.62;58.66
32452;BME280;45528;52.102;5.242;2022-12-29T06:21:12;99506.0;;;15.35;59.32
32452;BME280;45528;52.102;5.242;2022-12-29T06:22:48;99506.0;;;15.42;59.06
32452;BME280;45528;52.102;5.242;2022-12-29T06:24:25;99508.0;;;15.78;58.6
32452;BME280;45528;52.102;5.242;2022-12-29T06:27:40;99506.0;;;15.6;59.37
32452;BME280;45528;52.102;5.242;2022-12-29T06:29:17;99517.0;;;15.77;59.2
32452;BME280;45528;52.102;5.242;2022-12-29T06:30:53;99522.0;;;15.73;59.37
32452;BME280;45528;52.102;5.242;2022-12-29T06:32:29;99520.0;;;15.38;60.48
32452;BME280;45528;52.102;5.242;2022-12-29T06:35:43;99509.0;;;15.32;60.43
32452;BME280;45528;52.102;5.242;2022-12-29T06:37:20;99528.0;;;15.4;59.88
32452;BME280;45528;52.102;5.242;2022-12-29T06:38:56;99527.0;;;14.96;60.71
32452;BME280;45528;52.102;5.242;2022-12-29T06:42:10;99541.0;;;15.29;60.21
32452;BME280;45528;52.102;5.242;2022-12-29T06:43:46;99525.0;;;15.22;60.07
32452;BME280;45528;52.102;5.242;2022-12-29T06:45:24;99540.0;;;15.18;60.32
32452;BME280;45528;52.102;5.242;2022-12-29T06:48:37;99523.0;;;15.45;60.0
32452;BME280;45528;52.102;5.242;2022-12-29T06:50:13;99509.0;;;15.13;59.88
32452;BME280;45528;52.102;5.242;2022-12-29T06:51:50;99509.0;;;14.98;59.81
32452;BME280;45528;52.102;5.242;2022-12-29T06:53:28;99515.0;;;15.12;58.64
32452;BME280;45528;52.102;5.242;2022-12-29T06:56:42;99512.0;;;15.1;58.24
32452;BME280;45528;52.102;5.242;2022-12-29T06:58:20;99508.0;;;15.12;57.54
32452;BME280;45528;52.102;5.242;2022-12-29T06:59:56;99521.0;;;15.41;56.92
32452;BME280;45528;52.102;5.242;2022-12-29T07:03:09;99533.0;;;14.98;57.59
32452;BME280;45528;52.102;5.242;2022-12-29T07:04:46;99521.0;;;15.1;57.53
32452;BME280;45528;52.102;5.242;2022-12-29T07:06:22;99520.0;;;14.84;58.84
32452;BME280;45528;52.102;5.242;2022-12-29T07:09:36;99498.0;;;15.21;58.12
32452;BME280;45528;52.102;5.242;2022-12-29T07:11:12;99519.0;;;14.78;59.23
32452;BME280;45528;52.102;5.242;2022-12-29T07:12:48;99523.0;;;14.74;59.66
32452;BME280;45528;52.102;5.242;2022-12-29T07:14:26;99517.0;;;14.82;59.5
32452;BME280;45528;52.102;5.242;2022-12-29T07:17:41;99531.0;;;14.81;59.46
32452;BME280;45528;52.102;5.242;2022-12-29T07:19:19;99536.0;;;14.71;60.32
32452;BME280;45528;52.102;5.242;2022-12-29T07:20:56;99537.0;;;14.87;59.9
32452;BME280;45528;52.102;5.242;2022-12-29T07:24:08;99535.0;;;14.53;60.65
32452;BME280;45528;52.102;5.242;2022-12-29T07:25:45;99534.0;;;14.49;60.71
32452;BME280;45528;52.102;5.242;2022-12-29T07:27:21;99539.0;;;14.37;61.25
32452;BME280;45528;52.102;5.242;2022-12-29T07:29:00;99541.0;;;14.55;61.01
32452;BME280;45528;52.102;5.242;2022-12-29T07:32:14;99539.0;;;14.45;61.24
32452;BME280;45528;52.102;5.242;2022-12-29T07:33:50;99555.0;;;14.27;61.71
32452;BME280;45528;52.102;5.242;2022-12-29T07:35:27;99548.0;;;14.78;60.33
32452;BME280;45528;52.102;5.242;2022-12-29T07:38:41;99551.0;;;14.68;60.33
32452;BME280;45528;52.102;5.242;2022-12-29T07:40:19;99545.0;;;14.76;60.37
32452;BME280;45528;52.102;5.242;2022-12-29T07:41:56;99555.0;;;15.07;59.51
32452;BME280;45528;52.102;5.242;2022-12-29T07:45:10;99557.0;;;14.81;60.25
32452;BME280;45528;52.102;5.242;2022-12-29T07:46:47;99556.0;;;14.76;60.09
32452;BME280;45528;52.102;5.242;2022-12-29T07:48:23;99557.0;;;14.97;59.5
32452;BME280;45528;52.102;5.242;2022-12-29T07:49:59;99555.0;;;15.06;59.57
32452;BME280;45528;52.102;5.242;2022-12-29T07:53:14;99555.0;;;15.12;59.47
32452;BME280;45528;52.102;5.242;2022-12-29T07:54:51;99557.0;;;14.88;59.27
32452;BME280;45528;52.102;5.242;2022-12-29T07:56:27;99563.0;;;15.24;58.63
32452;BME280;45528;52.102;5.242;2022-12-29T07:59:40;99546.0;;;14.61;59.84
32452;BME280;45528;52.102;5.242;2022-12-29T08:01:16;99564.0;;;15.0;58.75
32452;BME280;45528;52.102;5.242;2022-12-29T08:02:53;99567.0;;;15.24;58.68
32452;BME280;45528;52.102;5.242;2022-12-29T08:06:05;99557.0;;;15.37;58.14
32452;BME280;45528;52.102;5.242;2022-12-29T08:07:45;99549.0;;;15.16;57.86
32452;BME280;45528;52.102;5.242;2022-12-29T08:09:21;99543.0;;;14.93;58.99
32452;BME280;45528;52.102;5.242;2022-12-29T08:10:57;99559.0;;;15.11;58.13
32452;BME280;45528;52.102;5.242;2022-12-29T08:14:10;99545.0;;;15.19;57.88
32452;BME280;45528;52.102;5.242;2022-12-29T08:15:47;99544.0;;;15.15;58.1
32452;BME280;45528;52.102;5.242;2022-12-29T08:17:23;99537.0;;;15.29;57.45
32452;BME280;45528;52.102;5.242;2022-12-29T08:20:36;99543.0;;;15.31;57.43
32452;BME280;45528;52.102;5.242;2022-12-29T08:22:13;99539.0;;;15.3;56.97
32452;BME280;45528;52.102;5.242;2022-12-29T08:23:49;99551.0;;;15.16;57.2
32452;BME280;45528;52.102;5.242;2022-12-29T08:27:01;99535.0;;;15.03;57.44
32452;BME280;45528;52.102;5.242;2022-12-29T08:28:38;99542.0;;;15.25;56.79
32452;BME280;45528;52.102;5.242;2022-12-29T08:30:14;99546.0;;;15.23;56.59
32452;BME280;45528;52.102;5.242;2022-12-29T08:31:51;99550.0;;;15.37;56.22
32452;BME280;45528;52.102;5.242;2022-12-29T08:35:05;99542.0;;;15.19;56.01
32452;BME280;45528;52.102;5.242;2022-12-29T08:36:42;99556.0;;;15.53;55.95
32452;BME280;45528;52.102;5.242;2022-12-29T08:38:18;99552.0;;;15.02;56.63
32452;BME280;45528;52.102;5.242;2022-12-29T08:41:31;99568.0;;;15.34;56.48
32452;BME280;45528;52.102;5.242;2022-12-29T08:43:07;99552.0;;;15.17;56.36
32452;BME280;45528;52.102;5.242;2022-12-29T08:44:43;99555.0;;;15.53;56.0
32452;BME280;45528;52.102;5.242;2022-12-29T08:47:57;99556.0;;;15.71;55.31
32452;BME280;45528;52.102;5.242;2022-12-29T08:49:33;99562.0;;;15.73;55.85
32452;BME280;45528;52.102;5.242;2022-12-29T08:51:09;99569.0;;;15.1;56.89
32452;BME280;45528;52.102;5.242;2022-12-29T08:52:45;99565.0;;;15.19;56.9
32452;BME280;45528;52.102;5.242;2022-12-29T08:55:59;99565.0;;;15.32;56.74
32452;BME280;45528;52.102;5.242;2022-12-29T08:57:36;99555.0;;;15.21;57.31
32452;BME280;45528;52.102;5.242;2022-12-29T08:59:12;99576.0;;;15.63;56.56
32452;BME280;45528;52.102;5.242;2022-12-29T09:02:27;99562.0;;;15.15;57.34
32452;BME280;45528;52.102;5.242;2022-12-29T09:04:04;99575.0;;;15.18;57.77
32452;BME280;45528;52.102;5.242;2022-12-29T09:05:40;99564.0;;;15.46;56.83
32452;BME280;45528;52.102;5.242;2022-12-29T09:07:16;99569.0;;;15.38;57.31
32452;BME280;45528;52.102;5.242;2022-12-29T09:10:30;99587.0;;;15.59;56.91
32452;BME280;45528;52.102;5.242;2022-12-29T09:12:07;99582.0;;;15.46;57.67
32452;BME280;45528;52.102;5.242;2022-12-29T09:13:43;99576.0;;;15.12;58.36
32452;BME280;45528;52.102;5.242;2022-12-29T09:16:56;99580.0;;;15.35;58.1
32452;BME280;45528;52.102;5.242;2022-12-29T09:18:33;99588.0;;;15.22;58.85
32452;BME280;45528;52.102;5.242;2022-12-29T09:20:10;99573.0;;;14.96;59.79
32452;BME280;45528;52.102;5.242;2022-12-29T09:23:23;99594.0;;;15.08;59.93
32452;BME280;45528;52.102;5.242;2022-12-29T09:26:36;99620.0;;;15.06;60.84
32452;BME280;45528;52.102;5.242;2022-12-29T09:28:12;99616.0;;;15.02;60.75
32452;BME280;45528;52.102;5.242;2022-12-29T09:31:25;99636.0;;;14.66;61.67
32452;BME280;45528;52.102;5.242;2022-12-29T09:33:02;99640.0;;;14.95;61.42
32452;BME280;45528;52.102;5.242;2022-12-29T09:34:39;99645.0;;;14.88;61.68
32452;BME280;45528;52.102;5.242;2022-12-29T09:37:53;99645.0;;;14.78;62.1
32452;BME280;45528;52.102;5.242;2022-12-29T09:39:28;99656.0;;;15.01;62.1
32452;BME280;45528;52.102;5.242;2022-12-29T09:41:10;99638.0;;;14.61;63.76
32452;BME280;45528;52.102;5.242;2022-12-29T09:44:51;99638.0;;;14.21;64.74
32452;BME280;45528;52.102;5.242;2022-12-29T09:46:38;99637.0;;;14.53;64.42
32452;BME280;45528;52.102;5.242;2022-12-29T09:48:19;99632.0;;;14.35;64.41
32452;BME280;45528;52.102;5.242;2022-12-29T09:50:02;99660.0;;;14.28;64.8
32452;BME280;45528;52.102;5.242;2022-12-29T09:51:43;99662.0;;;14.37;64.98
32452;BME280;45528;52.102;5.242;2022-12-29T09:53:25;99656.0;;;14.75;64.02
32452;BME280;45528;52.102;5.242;2022-12-29T09:58:34;99663.0;;;14.57;64.7
32452;BME280;45528;52.102;5.242;2022-12-29T10:01:57;99664.0;;;14.65;64.44
32452;BME280;45528;52.102;5.242;2022-12-29T10:03:42;99672.0;;;14.68;64.35
32452;BME280;45528;52.102;5.242;2022-12-29T10:05:31;99685.0;;;15.18;63.29
32452;BME280;45528;52.102;5.242;2022-12-29T10:07:15;99672.0;;;14.77;63.79
32452;BME280;45528;52.102;5.242;2022-12-29T10:09:02;99691.0;;;14.93;63.27
32452;BME280;45528;52.102;5.242;2022-12-29T10:10:51;99693.0;;;14.4;64.39
32452;BME280;45528;52.102;5.242;2022-12-29T10:12:36;99687.0;;;14.87;63.58
32452;BME280;45528;52.102;5.242;2022-12-29T10:14:35;99688.0;;;14.93;63.08
32452;BME280;45528;52.102;5.242;2022-12-29T10:18:10;99699.0;;;15.11;63.24
32452;BME280;45528;52.102;5.242;2022-12-29T10:20:04;99694.0;;;15.14;63.14
32452;BME280;45528;52.102;5.242;2022-12-29T10:22:00;99708.0;;;15.13;63.28
32452;BME280;45528;52.102;5.242;2022-12-29T10:23:49;99703.0;;;14.77;63.88
32452;BME280;45528;52.102;5.242;2022-12-29T10:25:30;99705.0;;;15.09;62.9
32452;BME280;45528;52.102;5.242;2022-12-29T10:27:12;99712.0;;;15.0;63.32
32452;BME280;45528;52.102;5.242;2022-12-29T10:30:32;99715.0;;;15.06;63.54
32452;BME280;45528;52.102;5.242;2022-12-29T10:32:15;99718.0;;;15.0;63.64
32452;BME280;45528;52.102;5.242;2022-12-29T10:34:13;99723.0;;;15.06;63.79
32452;BME280;45528;52.102;5.242;2022-12-29T10:37:36;99724.0;;;15.18;63.22
32452;BME280;45528;52.102;5.242;2022-12-29T10:39:23;99730.0;;;15.22;62.85
32452;BME280;45528;52.102;5.242;2022-12-29T10:41:08;99731.0;;;15.25;62.95
32452;BME280;45528;52.102;5.242;2022-12-29T10:42:53;99740.0;;;15.35;62.76
32452;BME280;45528;52.102;5.242;2022-12-29T10:44:30;99743.0;;;15.27;63.09
32452;BME280;45528;52.102;5.242;2022-12-29T10:46:10;99750.0;;;15.08;63.57
32452;BME280;45528;52.102;5.242;2022-12-29T10:47:53;99751.0;;;14.93;63.83
32452;BME280;45528;52.102;5.242;2022-12-29T10:51:21;99756.0;;;15.37;62.85
32452;BME280;45528;52.102;5.242;2022-12-29T10:53:04;99758.0;;;14.97;63.48
32452;BME280;45528;52.102;5.242;2022-12-29T10:54:45;99761.0;;;15.27;62.95
32452;BME280;45528;52.102;5.242;2022-12-29T10:56:30;99776.0;;;15.17;63.26
32452;BME280;45528;52.102;5.242;2022-12-29T10:59:50;99760.0;;;15.31;62.93
32452;BME280;45528;52.102;5.242;2022-12-29T11:01:32;99781.0;;;15.62;61.93
32452;BME280;45528;52.102;5.242;2022-12-29T11:03:33;99789.0;;;15.62;62.22
32452;BME280;45528;52.102;5.242;2022-12-29T11:05:26;99781.0;;;15.21;63.1
32452;BME280;45528;52.102;5.242;2022-12-29T11:07:09;99780.0;;;14.93;63.34
32452;BME280;45528;52.102;5.242;2022-12-29T11:08:52;99790.0;;;15.41;62.36
32452;BME280;45528;52.102;5.242;2022-12-29T11:12:20;99797.0;;;15.26;62.84
32452;BME280;45528;52.102;5.242;2022-12-29T11:13:58;99800.0;;;15.58;61.96
32452;BME280;45528;52.102;5.242;2022-12-29T11:15:39;99803.0;;;15.97;61.09
32452;BME280;45528;52.102;5.242;2022-12-29T11:17:17;99807.0;;;15.85;60.91
32452;BME280;45528;52.102;5.242;2022-12-29T11:20:32;99814.0;;;15.71;60.96
32452;BME280;45528;52.102;5.242;2022-12-29T11:22:18;99803.0;;;15.72;60.73
32452;BME280;45528;52.102;5.242;2022-12-29T11:25:34;99815.0;;;15.7;61.31
32452;BME280;45528;52.102;5.242;2022-12-29T11:30:24;99827.0;;;16.14;60.34
32452;BME280;45528;52.102;5.242;2022-12-29T11:32:11;99836.0;;;15.94;60.31
32452;BME280;45528;52.102;5.242;2022-12-29T11:33:47;99843.0;;;15.98;60.3